Time,TemperatureF,DewpointF,PressureIn,WindDirection,WindDirectionDegrees,WindSpeedMPH,WindSpeedGustMPH,Humidity,HourlyPrecipIn,Conditions,Clouds,dailyrainin,SolarRadiationWatts/m^2,SoftwareType,DateUTC
2013-04-01 00:02:00,48.0,48.0,-100.00,SSW,212,4.0,6.0,100,0.00,,,0.11,0.000000,,2013-04-01 05:02:00,
2013-04-01 00:33:00,48.0,48.0,-100.00,SSW,211,5.0,9.0,100,0.00,,,0.10,0.000000,,2013-04-01 05:33:00,
2013-04-01 00:43:00,48.0,48.0,-100.00,SSW,211,5.0,9.0,100,0.00,,,0.10,0.000000,,2013-04-01 05:43:00,
2013-04-01 00:53:00,48.0,48.0,-100.00,SSW,211,5.0,9.0,100,0.00,,,0.10,0.000000,,2013-04-01 05:53:00,
2013-04-01 01:02:00,48.0,48.0,-100.00,SSW,211,5.0,9.0,100,0.00,,,0.10,0.000000,,2013-04-01 06:02:00,
2013-04-01 01:34:00,48.0,48.0,-100.00,SW,220,4.0,9.0,100,0.00,,,0.09,0.000000,,2013-04-01 06:34:00,
2013-04-01 01:43:00,48.0,48.0,-100.00,SW,220,4.0,9.0,100,0.00,,,0.09,0.000000,,2013-04-01 06:43:00,
2013-04-01 01:53:00,48.0,48.0,-100.00,SW,220,4.0,9.0,100,0.00,,,0.09,0.000000,,2013-04-01 06:53:00,
2013-04-01 02:02:00,48.0,48.0,-100.00,SW,220,4.0,9.0,100,0.00,,,0.09,0.000000,,2013-04-01 07:02:00,
2013-04-01 02:32:00,47.0,47.0,-100.00,SW,223,3.0,8.0,100,0.00,,,-99.99,0.000000,,2013-04-01 07:32:00,
2013-04-01 02:43:00,47.0,47.0,-100.00,SW,223,3.0,8.0,100,0.00,,,-99.99,0.000000,,2013-04-01 07:43:00,
2013-04-01 02:53:00,47.0,47.0,-100.00,SW,223,3.0,8.0,100,0.00,,,-99.99,0.000000,,2013-04-01 07:53:00,
2013-04-01 03:03:00,47.0,47.0,-100.00,SW,223,3.0,8.0,100,0.00,,,-99.99,0.000000,,2013-04-01 08:03:00,
2013-04-01 03:32:00,46.0,46.0,-100.00,SW,234,3.0,6.0,100,0.00,,,0.09,0.000000,,2013-04-01 08:32:00,
2013-04-01 03:43:00,46.0,46.0,-100.00,SW,234,3.0,6.0,100,0.00,,,0.09,0.000000,,2013-04-01 08:43:00,
2013-04-01 03:53:00,46.0,46.0,-100.00,SW,234,3.0,6.0,100,0.00,,,0.09,0.000000,,2013-04-01 08:53:00,
2013-04-01 04:02:00,46.0,46.0,-100.00,SW,234,3.0,6.0,100,0.00,,,0.09,0.000000,,2013-04-01 09:02:00,
2013-04-01 04:33:00,46.0,46.0,-100.00,SW,214,3.0,6.0,100,0.00,,,0.08,0.000000,,2013-04-01 09:33:00,
2013-04-01 04:43:00,46.0,46.0,-100.00,SW,214,3.0,6.0,100,0.00,,,0.08,0.000000,,2013-04-01 09:43:00,
2013-04-01 04:53:00,46.0,46.0,-100.00,SW,214,3.0,6.0,100,0.00,,,0.08,0.000000,,2013-04-01 09:53:00,
2013-04-01 05:03:00,46.0,46.0,-100.00,SW,214,3.0,6.0,100,0.00,,,0.08,0.000000,,2013-04-01 10:03:00,
2013-04-01 05:34:00,46.0,46.0,-100.00,SW,222,4.0,5.0,100,0.00,,,0.07,0.000000,,2013-04-01 10:34:00,
2013-04-01 05:43:00,46.0,46.0,-100.00,SW,222,4.0,5.0,100,0.00,,,0.07,0.000000,,2013-04-01 10:43:00,
2013-04-01 05:53:00,46.0,46.0,-100.00,SW,222,4.0,5.0,100,0.00,,,0.07,0.000000,,2013-04-01 10:53:00,
2013-04-01 06:03:00,46.0,46.0,-100.00,SW,222,4.0,5.0,100,0.00,,,0.07,0.000000,,2013-04-01 11:03:00,
2013-04-01 06:33:00,45.0,45.0,-100.00,WSW,239,4.0,7.0,100,0.00,,,0.07,0.000000,,2013-04-01 11:33:00,
2013-04-01 06:43:00,45.0,45.0,-100.00,WSW,239,4.0,7.0,100,0.00,,,0.07,0.000000,,2013-04-01 11:43:00,
2013-04-01 06:53:00,45.0,45.0,-100.00,WSW,239,4.0,7.0,100,0.00,,,0.07,0.000000,,2013-04-01 11:53:00,
2013-04-01 07:02:00,45.0,45.0,-100.00,WSW,239,4.0,7.0,100,0.00,,,0.07,0.000000,,2013-04-01 12:02:00,
2013-04-01 07:32:00,45.0,45.0,-100.00,West,271,3.0,7.0,100,0.01,,,-99.99,8.000000,,2013-04-01 12:32:00,
2013-04-01 07:43:00,45.0,45.0,-100.00,West,271,3.0,7.0,100,0.01,,,-99.99,8.000000,,2013-04-01 12:43:00,
2013-04-01 07:53:00,45.0,45.0,-100.00,West,271,3.0,7.0,100,0.01,,,-99.99,8.000000,,2013-04-01 12:53:00,
2013-04-01 08:03:00,45.0,45.0,-100.00,West,271,3.0,7.0,100,0.01,,,-99.99,8.000000,,2013-04-01 13:03:00,
2013-04-01 08:33:00,47.0,47.0,-100.00,NNW,339,7.0,12.0,100,0.00,,,0.07,68.000000,,2013-04-01 13:33:00,
2013-04-01 08:43:00,47.0,47.0,-100.00,NNW,339,7.0,12.0,100,0.00,,,0.07,68.000000,,2013-04-01 13:43:00,
2013-04-01 08:53:00,47.0,47.0,-100.00,NNW,339,7.0,12.0,100,0.00,,,0.07,68.000000,,2013-04-01 13:53:00,
2013-04-01 09:03:00,47.0,47.0,-100.00,NNW,339,7.0,12.0,100,0.00,,,0.07,68.000000,,2013-04-01 14:03:00,
2013-04-01 09:33:00,49.0,38.0,-100.00,North,5,8.0,16.0,65,0.00,,,0.07,266.000000,,2013-04-01 14:33:00,
2013-04-01 09:43:00,49.0,38.0,-100.00,North,5,8.0,16.0,65,0.00,,,0.07,266.000000,,2013-04-01 14:43:00,
2013-04-01 09:53:00,49.0,38.0,-100.00,North,5,8.0,16.0,65,0.00,,,0.07,266.000000,,2013-04-01 14:53:00,
2013-04-01 10:03:00,49.0,38.0,-100.00,North,5,8.0,16.0,65,0.00,,,0.07,266.000000,,2013-04-01 15:03:00,
2013-04-01 10:34:00,52.0,35.0,-100.00,North,9,7.0,14.0,52,0.00,,,0.07,516.000000,,2013-04-01 15:34:00,
2013-04-01 10:43:00,52.0,35.0,-100.00,North,9,7.0,14.0,52,0.00,,,0.07,516.000000,,2013-04-01 15:43:00,
2013-04-01 10:54:00,52.0,35.0,-100.00,North,9,7.0,14.0,52,0.00,,,0.07,516.000000,,2013-04-01 15:54:00,
2013-04-01 11:03:00,52.0,35.0,-100.00,North,9,7.0,14.0,52,0.00,,,0.07,516.000000,,2013-04-01 16:03:00,
2013-04-01 12:32:00,54.0,35.0,-100.00,North,353,9.0,15.0,48,-99.99,,,0.07,642.000000,,2013-04-01 17:32:00,
2013-04-01 12:42:00,54.0,35.0,-100.00,North,353,9.0,15.0,48,-99.99,,,0.07,642.000000,,2013-04-01 17:42:00,
2013-04-01 12:53:00,54.0,35.0,-100.00,North,353,9.0,15.0,48,-99.99,,,0.07,642.000000,,2013-04-01 17:53:00,
2013-04-01 13:02:00,54.0,35.0,-100.00,North,353,9.0,15.0,48,-99.99,,,0.07,642.000000,,2013-04-01 18:02:00,
2013-04-01 13:33:00,58.0,37.0,-100.00,NW,311,5.0,16.0,45,0.00,,,0.07,786.000000,,2013-04-01 18:33:00,
2013-04-01 13:43:00,58.0,37.0,-100.00,NW,311,5.0,16.0,45,0.00,,,0.07,786.000000,,2013-04-01 18:43:00,
2013-04-01 13:53:00,58.0,37.0,-100.00,NW,311,5.0,16.0,45,0.00,,,0.07,786.000000,,2013-04-01 18:53:00,
2013-04-01 14:03:00,58.0,37.0,-100.00,NW,311,5.0,16.0,45,0.00,,,0.07,786.000000,,2013-04-01 19:03:00,
2013-04-01 14:33:00,60.0,39.0,-100.00,West,277,6.0,13.0,45,0.00,,,0.05,794.000000,,2013-04-01 19:33:00,
2013-04-01 14:43:00,60.0,39.0,-100.00,West,277,6.0,13.0,45,0.00,,,0.05,794.000000,,2013-04-01 19:43:00,
2013-04-01 14:53:00,60.0,39.0,-100.00,West,277,6.0,13.0,45,0.00,,,0.05,794.000000,,2013-04-01 19:53:00,
2013-04-01 15:02:00,60.0,39.0,-100.00,West,277,6.0,13.0,45,0.00,,,0.05,794.000000,,2013-04-01 20:02:00,
2013-04-01 15:33:00,59.0,36.0,-100.00,WNW,283,8.0,16.0,42,0.00,,,0.02,720.000000,,2013-04-01 20:33:00,
2013-04-01 15:43:00,59.0,36.0,-100.00,WNW,283,8.0,16.0,42,0.00,,,0.02,720.000000,,2013-04-01 20:43:00,
2013-04-01 15:52:00,59.0,36.0,-100.00,WNW,283,8.0,16.0,42,0.00,,,0.02,720.000000,,2013-04-01 20:52:00,
2013-04-01 16:02:00,59.0,36.0,-100.00,WNW,283,8.0,16.0,42,0.00,,,0.02,720.000000,,2013-04-01 21:02:00,
2013-04-01 16:33:00,61.0,36.0,-100.00,West,280,6.0,17.0,40,0.00,,,0.01,602.000000,,2013-04-01 21:33:00,
2013-04-01 16:44:00,61.0,36.0,-100.00,West,280,6.0,17.0,40,0.00,,,0.01,602.000000,,2013-04-01 21:44:00,
2013-04-01 16:53:00,61.0,36.0,-100.00,West,280,6.0,17.0,40,0.00,,,0.01,602.000000,,2013-04-01 21:53:00,
2013-04-01 17:02:00,61.0,36.0,-100.00,West,280,6.0,17.0,40,0.00,,,0.01,602.000000,,2013-04-01 22:02:00,
2013-04-01 17:33:00,55.0,33.0,-100.00,NW,318,8.0,18.0,43,0.00,,,0.01,256.000000,,2013-04-01 22:33:00,
2013-04-01 17:43:00,55.0,33.0,-100.00,NW,318,8.0,18.0,43,0.00,,,0.01,256.000000,,2013-04-01 22:43:00,
2013-04-01 17:52:00,55.0,33.0,-100.00,NW,318,8.0,18.0,43,0.00,,,0.01,256.000000,,2013-04-01 22:52:00,
2013-04-01 18:02:00,55.0,33.0,-100.00,NW,318,8.0,18.0,43,0.00,,,0.01,256.000000,,2013-04-01 23:02:00,
2013-04-01 18:32:00,53.0,33.0,-100.00,NW,321,7.0,16.0,46,0.00,,,0.01,150.000000,,2013-04-01 23:32:00,
2013-04-01 18:43:00,53.0,33.0,-100.00,NW,321,7.0,16.0,46,0.00,,,0.01,150.000000,,2013-04-01 23:43:00,
2013-04-01 18:53:00,53.0,33.0,-100.00,NW,321,7.0,16.0,46,0.00,,,0.01,150.000000,,2013-04-01 23:53:00,
2013-04-01 19:03:00,53.0,33.0,-100.00,NW,321,7.0,16.0,46,0.00,,,0.01,150.000000,,2013-04-02 00:03:00,
2013-04-01 19:33:00,50.0,33.0,-100.00,NNW,339,7.0,14.0,51,0.00,,,0.01,35.000000,,2013-04-02 00:33:00,
2013-04-01 19:43:00,50.0,33.0,-100.00,NNW,339,7.0,14.0,51,0.00,,,0.01,35.000000,,2013-04-02 00:43:00,
2013-04-01 19:53:00,50.0,33.0,-100.00,NNW,339,7.0,14.0,51,0.00,,,0.01,35.000000,,2013-04-02 00:53:00,
2013-04-01 20:02:00,50.0,33.0,-100.00,NNW,339,7.0,14.0,51,0.00,,,0.01,35.000000,,2013-04-02 01:02:00,
2013-04-01 20:32:00,47.0,31.0,-100.00,NNW,342,9.0,15.0,54,0.00,,,0.01,0.000000,,2013-04-02 01:32:00,
2013-04-01 20:43:00,47.0,31.0,-100.00,NNW,342,9.0,15.0,54,0.00,,,0.01,0.000000,,2013-04-02 01:43:00,
2013-04-01 20:53:00,47.0,31.0,-100.00,NNW,342,9.0,15.0,54,0.00,,,0.01,0.000000,,2013-04-02 01:53:00,
2013-04-01 21:02:00,47.0,31.0,-100.00,NNW,342,9.0,15.0,54,0.00,,,0.01,0.000000,,2013-04-02 02:02:00,
2013-04-01 21:33:00,44.0,28.0,-100.00,NNW,337,6.0,12.0,53,0.00,,,0.01,0.000000,,2013-04-02 02:33:00,
2013-04-01 21:43:00,44.0,28.0,-100.00,NNW,337,6.0,12.0,53,0.00,,,0.01,0.000000,,2013-04-02 02:43:00,
2013-04-01 21:53:00,44.0,28.0,-100.00,NNW,337,6.0,12.0,53,0.00,,,0.01,0.000000,,2013-04-02 02:53:00,
2013-04-01 22:02:00,44.0,28.0,-100.00,NNW,337,6.0,12.0,53,0.00,,,0.01,0.000000,,2013-04-02 03:02:00,
2013-04-01 22:33:00,43.0,26.0,-100.00,NNW,347,7.0,11.0,51,0.00,,,0.01,0.000000,,2013-04-02 03:33:00,
2013-04-01 22:43:00,43.0,26.0,-100.00,NNW,347,7.0,11.0,51,0.00,,,0.01,0.000000,,2013-04-02 03:43:00,
2013-04-01 22:53:00,43.0,26.0,-100.00,NNW,347,7.0,11.0,51,0.00,,,0.01,0.000000,,2013-04-02 03:53:00,
2013-04-01 23:03:00,43.0,26.0,-100.00,NNW,347,7.0,11.0,51,0.00,,,0.01,0.000000,,2013-04-02 04:03:00,
2013-04-01 23:33:00,41.0,25.0,-100.00,NNW,341,6.0,10.0,52,0.00,,,0.01,0.000000,,2013-04-02 04:33:00,
2013-04-01 23:43:00,41.0,25.0,-100.00,NNW,341,6.0,10.0,52,0.00,,,0.01,0.000000,,2013-04-02 04:43:00,
2013-04-01 23:53:00,41.0,25.0,-100.00,NNW,341,6.0,10.0,52,0.00,,,0.01,0.000000,,2013-04-02 04:53:00,